Terminal Aerodrome Forecast
Issued by NWS Burlington, VT

Home | Current Version | Previous Version | Text Only | Print | Product List | Glossary On
Versions: 1 2 3 4 5 6 7 8 9 10 11 12 13 14 15 16 17 18 19 20 21
906
FTUS41 KBTV 031131
TAFBTV
TAF
KBTV 031131Z 0312/0412 32010G17KT P6SM VCSH FEW028 OVC035
      TEMPO 0312/0316 5SM -SHSN BR BKN028
     FM032200 32010G16KT P6SM OVC035
     FM040500 33006KT P6SM OVC035=

USA.gov is the U.S. government's official web portal to all federal, state and local government web resources and services.